Main page
METAR-TAF:

METAR-TAF

Airports :

Tiree Airport

Tiree, Scotland

latitude: 56-30N, longitude: 006-53W, elevation: 12 m

Current weather observation

The report was made 28 minutes ago, at 20:50 UTC
Wind 8 kt from the South
Temperature 10°C
Humidity 100%
Pressure 1015 hPa
Visibility: 2300 m
light drizzle

METAR: EGPU 202050Z AUTO 18008KT 2300 -DZ OVC001/// 10/10 Q1015

Time: 22:18 (21:18 UTC)


TAF: missing

Weather observations and forecasts of more than 4000 airports (METAR and TAF reports).

The available stations are represented by yellow and red dots on the map.

Hover mouse over dot to see the name of the station.

Then click to see weather observations and forecasts.

To change the map : click on the green buttons with a black cross to zoom in, on the green button with a dash to zoom out, or on the green arrows for adjacent maps.


METAR-TAF: